createdAt,value
2019-04-20T00:01:07.445Z,101717.23
2019-04-20T00:03:42.367Z,101717.30
2019-04-20T00:06:11.149Z,101718.97
2019-04-20T00:08:43.121Z,101718.05
2019-04-20T00:11:21.868Z,101717.83
2019-04-20T00:13:55.225Z,101715.37
2019-04-20T00:16:18.913Z,101722.38
2019-04-20T00:18:53.937Z,101717.22
2019-04-20T00:21:47.339Z,101716.40
2019-04-20T00:24:21.724Z,101723.05
2019-04-20T00:29:41.100Z,101721.58
2019-04-20T00:32:04.190Z,101726.53
2019-04-20T00:34:31.518Z,101722.55
2019-04-20T00:36:58.129Z,101715.66
2019-04-20T00:39:29.853Z,101715.81
2019-04-20T00:42:06.165Z,101719.69
2019-04-20T00:44:36.213Z,101714.00
2019-04-20T00:47:15.913Z,101707.60
2019-04-20T00:49:53.283Z,101709.31
2019-04-20T00:52:27.435Z,101707.36
2019-04-20T00:54:45.333Z,101706.40
2019-04-20T00:57:27.998Z,101704.36
2019-04-20T01:00:21.688Z,101708.17
2019-04-20T01:02:34.880Z,101702.38
2019-04-20T01:05:15.201Z,101709.82
2019-04-20T01:07:55.078Z,101707.03
2019-04-20T01:10:22.038Z,101706.10
2019-04-20T01:13:01.213Z,101708.08
2019-04-20T01:15:35.243Z,101708.39
2019-04-20T01:17:57.025Z,101716.35
2019-04-20T01:20:27.969Z,101715.89
2019-04-20T01:23:04.569Z,101712.28
2019-04-20T01:25:35.277Z,101710.27
2019-04-20T01:28:19.288Z,101700.92
2019-04-20T01:30:42.467Z,101705.72
2019-04-20T01:33:22.623Z,101707.02
2019-04-20T01:35:53.443Z,101709.51
2019-04-20T01:38:29.375Z,101707.98
2019-04-20T01:40:44.383Z,101706.75
2019-04-20T01:43:16.240Z,101708.48
2019-04-20T01:46:01.341Z,101707.56
2019-04-20T01:48:33.509Z,101711.52
2019-04-20T01:51:11.821Z,101706.33
2019-04-20T01:53:56.820Z,101709.66
2019-04-20T01:56:31.445Z,101705.27
2019-04-20T01:59:19.562Z,101703.70
2019-04-20T02:02:18.397Z,101703.89
2019-04-20T02:05:11.540Z,101698.20
2019-04-20T02:07:42.282Z,101709.77
2019-04-20T02:10:40.387Z,101700.98
2019-04-20T02:16:14.512Z,101707.33
2019-04-20T02:19:06.598Z,101713.45
2019-04-20T02:22:04.099Z,101711.54
2019-04-20T02:24:29.935Z,101713.22
2019-04-20T02:27:14.667Z,101712.83
2019-04-20T02:30:25.231Z,101709.75
2019-04-20T02:33:16.642Z,101705.00
2019-04-20T02:36:38.203Z,101705.38
2019-04-20T02:44:27.182Z,101700.89
2019-04-20T02:46:51.053Z,101706.20
2019-04-20T02:54:52.408Z,101709.66
2019-04-20T02:57:12.200Z,101709.23
2019-04-20T02:59:59.692Z,101707.62
2019-04-20T03:02:18.467Z,101702.70
2019-04-20T03:05:13.343Z,101703.08
2019-04-20T03:07:53.390Z,101700.17
2019-04-20T03:10:47.334Z,101693.49
2019-04-20T03:13:45.629Z,101690.76
2019-04-20T03:16:50.394Z,101695.11
2019-04-20T03:19:25.097Z,101698.53
2019-04-20T03:22:45.574Z,101698.00
2019-04-20T03:25:15.204Z,101704.68
2019-04-20T03:28:05.443Z,101705.16
2019-04-20T03:31:24.983Z,101706.91
2019-04-20T03:33:51.359Z,101706.28
2019-04-20T03:36:25.939Z,101708.83
2019-04-20T03:38:47.904Z,101708.42
2019-04-20T03:41:41.987Z,101705.80
2019-04-20T03:44:24.405Z,101706.73
2019-04-20T03:46:59.728Z,101703.58
2019-04-20T03:50:02.968Z,101706.74
2019-04-20T03:53:02.791Z,101704.45
2019-04-20T03:55:40.798Z,101708.34
2019-04-20T03:58:29.239Z,101704.84
2019-04-20T04:02:16.624Z,101709.91
2019-04-20T04:04:56.318Z,101713.72
2019-04-20T04:07:19.561Z,101717.85
2019-04-20T04:10:28.329Z,101721.57
2019-04-20T04:13:23.403Z,101723.94
2019-04-20T04:15:59.292Z,101723.88
2019-04-20T04:18:33.296Z,101724.09
2019-04-20T04:21:07.943Z,101723.41
2019-04-20T04:23:49.098Z,101724.72
2019-04-20T04:26:26.108Z,101727.66
2019-04-20T04:28:56.215Z,101729.73
2019-04-20T04:31:57.722Z,101733.03
2019-04-20T04:34:31.025Z,101728.15
2019-04-20T04:37:13.215Z,101727.66
2019-04-20T04:39:56.319Z,101730.66
2019-04-20T04:42:30.401Z,101723.01
2019-04-20T04:44:48.393Z,101732.58
2019-04-20T04:47:13.378Z,101725.83
2019-04-20T04:49:48.450Z,101731.37
2019-04-20T04:52:19.208Z,101740.00
2019-04-20T04:54:56.635Z,101735.11
2019-04-20T04:57:28.530Z,101741.28
2019-04-20T04:59:59.435Z,101740.62
2019-04-20T05:02:40.468Z,101742.52
2019-04-20T05:05:49.382Z,101743.00
2019-04-20T05:08:10.169Z,101745.50
2019-04-20T05:10:33.402Z,101754.84
2019-04-20T05:13:26.765Z,101745.23
2019-04-20T05:16:07.603Z,101742.88
2019-04-20T05:18:51.170Z,101745.21
2019-04-20T05:21:56.882Z,101746.73
2019-04-20T05:24:59.434Z,101738.83
2019-04-20T05:27:36.408Z,101737.42
2019-04-20T05:29:44.863Z,101733.37
2019-04-20T05:32:24.741Z,101733.81
2019-04-20T05:35:11.121Z,101733.81
2019-04-20T05:38:06.810Z,101743.92
2019-04-20T05:40:59.519Z,101745.48
2019-04-20T05:44:04.710Z,101740.59
2019-04-20T05:46:43.042Z,101742.63
2019-04-20T05:49:18.940Z,101739.12
2019-04-20T05:51:44.324Z,101739.00
2019-04-20T05:54:23.337Z,101742.47
2019-04-20T05:56:50.119Z,101750.00
2019-04-20T05:59:23.501Z,101749.02
2019-04-20T06:02:13.823Z,101752.66
2019-04-20T06:04:55.922Z,101753.73
2019-04-20T06:07:15.514Z,101751.15
2019-04-20T06:09:47.683Z,101756.56
2019-04-20T06:12:19.847Z,101751.85
2019-04-20T06:15:19.923Z,101753.28
2019-04-20T06:18:07.051Z,101753.30
2019-04-20T06:21:07.855Z,101752.52
2019-04-20T06:26:39.980Z,101749.14
2019-04-20T06:28:52.958Z,101750.02
2019-04-20T06:31:35.672Z,101749.51
2019-04-20T06:34:51.323Z,101753.28
2019-04-20T06:38:06.523Z,101749.74
2019-04-20T06:40:46.878Z,101751.30
2019-04-20T06:43:04.095Z,101754.57
2019-04-20T06:45:46.017Z,101754.21
2019-04-20T06:49:05.710Z,101762.52
2019-04-20T06:51:40.798Z,101763.58
2019-04-20T06:54:48.691Z,101762.25
2019-04-20T06:57:30.238Z,101761.10
2019-04-20T07:00:30.874Z,101757.89
2019-04-20T07:03:05.758Z,101758.45
2019-04-20T07:05:47.831Z,101765.35
2019-04-20T07:08:33.156Z,101757.35
2019-04-20T07:11:29.359Z,101752.78
2019-04-20T07:14:01.311Z,101754.42
2019-04-20T07:17:53.379Z,101751.31
2019-04-20T07:21:41.782Z,101754.62
2019-04-20T07:24:14.186Z,101752.91
2019-04-20T07:26:49.275Z,101755.05
2019-04-20T07:29:32.041Z,101755.22
2019-04-20T07:32:20.350Z,101752.27
2019-04-20T07:35:25.116Z,101755.41
2019-04-20T07:38:18.264Z,101752.26
2019-04-20T07:40:56.077Z,101758.90
2019-04-20T07:43:30.011Z,101762.55
2019-04-20T07:46:59.849Z,101761.41
2019-04-20T07:49:52.372Z,101765.36
2019-04-20T07:52:04.374Z,101763.33
2019-04-20T07:55:21.589Z,101769.13
2019-04-20T07:57:39.392Z,101762.91
2019-04-20T08:01:05.971Z,101760.72
2019-04-20T08:04:06.674Z,101765.30
2019-04-20T08:06:37.875Z,101761.72
2019-04-20T08:09:42.328Z,101757.12
2019-04-20T08:12:58.404Z,101753.22
2019-04-20T08:15:42.719Z,101751.24
2019-04-20T08:18:10.357Z,101747.84
2019-04-20T08:20:52.611Z,101748.91
2019-04-20T08:23:23.094Z,101749.55
2019-04-20T08:25:52.247Z,101751.82
2019-04-20T08:28:39.128Z,101743.30
2019-04-20T08:32:04.383Z,101743.23
2019-04-20T08:34:41.890Z,101739.45
2019-04-20T08:37:32.952Z,101738.75
2019-04-20T08:40:34.224Z,101743.05
2019-04-20T08:43:24.001Z,101740.25
2019-04-20T08:46:23.448Z,101735.69
2019-04-20T08:49:25.360Z,101733.98
2019-04-20T08:52:48.337Z,101735.65
2019-04-20T08:55:10.511Z,101732.85
2019-04-20T08:57:42.469Z,101729.30
2019-04-20T09:00:18.247Z,101727.75
2019-04-20T09:03:19.373Z,101724.69
2019-04-20T09:06:09.848Z,101718.14
2019-04-20T09:09:37.586Z,101721.64
2019-04-20T09:12:06.149Z,101721.41
2019-04-20T09:14:21.357Z,101716.98
2019-04-20T09:17:07.964Z,101713.55
2019-04-20T09:20:04.744Z,101715.25
2019-04-20T09:23:28.054Z,101712.13
2019-04-20T09:28:33.429Z,101711.45
2019-04-20T09:31:21.388Z,101704.97
2019-04-20T09:34:12.847Z,101700.47
2019-04-20T09:37:11.530Z,101700.16
2019-04-20T09:40:21.541Z,101690.75
2019-04-20T09:43:02.342Z,101686.41
2019-04-20T09:45:49.880Z,101687.98
2019-04-20T09:48:54.722Z,101687.63
2019-04-20T09:51:43.701Z,101690.96
2019-04-20T09:54:34.460Z,101686.38
2019-04-20T09:57:11.817Z,101686.77
2019-04-20T09:59:57.276Z,101678.55
2019-04-20T10:02:44.564Z,101678.28
2019-04-20T10:05:20.750Z,101673.23
2019-04-20T10:08:04.945Z,101672.27
2019-04-20T10:10:43.855Z,101669.16
2019-04-20T10:13:48.122Z,101667.06
2019-04-20T10:16:23.846Z,101669.44
2019-04-20T10:19:02.787Z,101669.52
2019-04-20T10:21:53.170Z,101664.59
2019-04-20T10:24:24.373Z,101660.81
2019-04-20T10:27:08.488Z,101661.06
2019-04-20T10:30:01.115Z,101655.55
2019-04-20T10:33:31.370Z,101653.75
2019-04-20T10:36:43.692Z,101655.42
2019-04-20T10:39:56.570Z,101651.36
2019-04-20T10:42:50.157Z,101657.37
2019-04-20T10:45:46.806Z,101646.61
2019-04-20T10:48:45.917Z,101646.60
2019-04-20T10:51:37.828Z,101646.05
2019-04-20T10:54:16.141Z,101647.08
2019-04-20T10:57:17.421Z,101645.62
2019-04-20T10:59:51.967Z,101641.34
2019-04-20T11:03:01.683Z,101646.63
2019-04-20T11:05:46.651Z,101629.17
2019-04-20T11:08:22.411Z,101629.21
2019-04-20T11:11:32.458Z,101631.47
2019-04-20T11:14:24.253Z,101622.17
2019-04-20T11:16:48.521Z,101624.86
2019-04-20T11:19:33.965Z,101623.83
2019-04-20T11:22:22.146Z,101623.42
2019-04-20T11:24:52.673Z,101629.48
2019-04-20T11:27:34.581Z,101620.92
2019-04-20T11:30:05.760Z,101610.45
2019-04-20T11:32:36.296Z,101613.37
2019-04-20T11:35:27.812Z,101604.70
2019-04-20T11:37:55.454Z,101609.63
2019-04-20T11:41:02.728Z,101598.02
2019-04-20T11:43:42.378Z,101598.68
2019-04-20T11:46:32.444Z,101591.03
2019-04-20T11:49:33.795Z,101592.85
2019-04-20T11:52:28.196Z,101592.54
2019-04-20T11:55:06.398Z,101584.42
2019-04-20T11:57:43.154Z,101581.88
2019-04-20T12:00:44.308Z,101581.75
2019-04-20T12:04:00.346Z,101584.03
2019-04-20T12:06:43.406Z,101580.67
2019-04-20T12:09:14.910Z,101583.19
2019-04-20T12:12:34.939Z,101573.33
2019-04-20T12:14:56.794Z,101569.86
2019-04-20T12:17:33.489Z,101570.62
2019-04-20T12:20:30.746Z,101557.78
2019-04-20T12:23:06.454Z,101551.42
2019-04-20T12:25:59.841Z,101550.55
2019-04-20T12:28:38.386Z,101544.76
2019-04-20T12:31:16.518Z,101551.87
2019-04-20T12:34:04.347Z,101546.52
2019-04-20T12:36:37.661Z,101554.47
2019-04-20T12:39:11.100Z,101545.69
2019-04-20T12:42:25.401Z,101549.27
2019-04-20T12:44:59.669Z,101543.66
2019-04-20T12:48:25.687Z,101541.25
2019-04-20T12:51:15.631Z,101545.28
2019-04-20T12:53:46.651Z,101539.52
2019-04-20T12:56:40.362Z,101537.88
2019-04-20T13:00:05.693Z,101538.86
2019-04-20T13:03:17.404Z,101537.16
2019-04-20T13:06:19.749Z,101529.27
2019-04-20T13:09:18.750Z,101524.41
2019-04-20T13:12:05.264Z,101523.55
2019-04-20T13:15:28.778Z,101514.30
2019-04-20T13:18:07.527Z,101511.08
2019-04-20T13:20:38.078Z,101511.77
2019-04-20T13:23:20.194Z,101510.62
2019-04-20T13:25:50.865Z,101510.98
2019-04-20T13:28:26.324Z,101508.66
2019-04-20T13:31:31.639Z,101512.38
2019-04-20T13:34:13.307Z,101509.98
2019-04-20T13:37:13.819Z,101505.81
2019-04-20T13:40:23.909Z,101497.73
2019-04-20T13:43:07.908Z,101497.95
2019-04-20T13:45:57.574Z,101494.71
2019-04-20T13:48:33.081Z,101487.81
2019-04-20T13:51:05.880Z,101490.30
2019-04-20T13:53:41.045Z,101480.45
2019-04-20T13:56:35.363Z,101477.27
2019-04-20T13:59:40.264Z,101476.63
2019-04-20T14:02:58.498Z,101473.83
2019-04-20T14:05:48.766Z,101463.51
2019-04-20T14:09:01.181Z,101458.00
2019-04-20T14:11:39.578Z,101445.72
2019-04-20T14:14:15.337Z,101440.69
2019-04-20T14:17:26.464Z,101436.43
2019-04-20T14:20:13.350Z,101429.64
2019-04-20T14:23:03.315Z,101438.70
2019-04-20T14:25:36.493Z,101433.19
2019-04-20T14:28:23.018Z,101431.08
2019-04-20T14:31:14.108Z,101432.83
2019-04-20T14:33:59.070Z,101427.39
2019-04-20T14:36:50.898Z,101423.37
2019-04-20T14:39:40.835Z,101426.61
2019-04-20T14:42:39.295Z,101419.80
2019-04-20T14:45:25.002Z,101416.55
2019-04-20T14:48:01.908Z,101405.76
2019-04-20T14:50:33.817Z,101404.36
2019-04-20T14:53:05.273Z,101400.95
2019-04-20T14:55:39.581Z,101394.77
2019-04-20T14:58:29.246Z,101399.37
2019-04-20T15:01:04.789Z,101396.01
2019-04-20T15:03:38.645Z,101398.66
2019-04-20T15:06:09.890Z,101394.77
2019-04-20T15:08:40.793Z,101395.67
2019-04-20T15:11:12.702Z,101386.25
2019-04-20T15:13:46.739Z,101391.81
2019-04-20T15:16:17.280Z,101387.02
2019-04-20T15:18:55.178Z,101385.49
2019-04-20T15:21:27.216Z,101381.42
2019-04-20T15:23:57.734Z,101381.19
2019-04-20T15:26:30.737Z,101380.50
2019-04-20T15:29:02.156Z,101380.98
2019-04-20T15:31:34.191Z,101373.56
2019-04-20T15:34:06.885Z,101371.75
2019-04-20T15:36:38.121Z,101369.69
2019-04-20T15:39:09.419Z,101373.40
2019-04-20T15:41:41.047Z,101371.13
2019-04-20T15:44:11.610Z,101364.95
2019-04-20T15:46:43.421Z,101368.17
2019-04-20T15:49:14.008Z,101368.05
2019-04-20T15:51:46.049Z,101362.09
2019-04-20T15:54:17.836Z,101366.84
2019-04-20T15:56:56.084Z,101367.36
2019-04-20T15:59:20.662Z,101362.67
2019-04-20T16:01:55.600Z,101360.08
2019-04-20T16:04:45.366Z,101361.45
2019-04-20T16:07:17.081Z,101360.02
2019-04-20T16:09:48.492Z,101352.48
2019-04-20T16:12:20.713Z,101350.59
2019-04-20T16:14:51.747Z,101349.27
2019-04-20T16:17:25.181Z,101344.02
2019-04-20T16:20:01.372Z,101340.48
2019-04-20T16:22:28.893Z,101335.82
2019-04-20T16:25:05.529Z,101335.31
2019-04-20T16:27:39.748Z,101335.55
2019-04-20T16:30:11.649Z,101329.62
2019-04-20T16:32:42.727Z,101324.47
2019-04-20T16:35:14.138Z,101318.52
2019-04-20T16:37:44.699Z,101321.47
2019-04-20T16:40:15.706Z,101317.95
2019-04-20T16:42:46.201Z,101318.59
2019-04-20T16:45:17.297Z,101315.29
2019-04-20T16:47:48.211Z,101311.97
2019-04-20T16:50:19.345Z,101317.73
2019-04-20T16:52:50.815Z,101312.41
2019-04-20T16:55:22.881Z,101310.07
2019-04-20T16:57:55.537Z,101304.78
2019-04-20T17:00:29.452Z,101306.26
2019-04-20T17:03:02.597Z,101305.86
2019-04-20T17:05:37.023Z,101300.29
2019-04-20T17:08:08.955Z,101299.02
2019-04-20T17:10:41.555Z,101308.13
2019-04-20T17:13:12.003Z,101301.60
2019-04-20T17:15:43.436Z,101301.19
2019-04-20T17:18:17.251Z,101298.88
2019-04-20T17:20:50.603Z,101297.41
2019-04-20T17:23:25.370Z,101297.35
2019-04-20T17:25:57.913Z,101294.18
2019-04-20T17:28:46.937Z,101294.31
2019-04-20T17:31:37.764Z,101298.86
2019-04-20T17:34:31.545Z,101290.06
2019-04-20T17:36:50.488Z,101303.45
2019-04-20T17:39:31.048Z,101306.45
2019-04-20T17:42:07.464Z,101306.67
2019-04-20T17:44:41.341Z,101300.74
2019-04-20T17:47:21.663Z,101302.97
2019-04-20T17:49:58.865Z,101302.05
2019-04-20T17:52:37.323Z,101302.19
2019-04-20T17:55:01.785Z,101302.84
2019-04-20T17:57:33.202Z,101299.38
2019-04-20T18:00:20.706Z,101307.31
2019-04-20T18:03:09.968Z,101304.95
2019-04-20T18:05:59.513Z,101302.99
2019-04-20T18:08:35.969Z,101307.39
2019-04-20T18:11:02.067Z,101312.36
2019-04-20T18:13:29.140Z,101313.97
2019-04-20T18:16:23.507Z,101311.11
2019-04-20T18:18:58.527Z,101315.11
2019-04-20T18:21:32.923Z,101315.28
2019-04-20T18:24:16.473Z,101319.82
2019-04-20T18:27:03.131Z,101320.72
2019-04-20T18:29:40.982Z,101323.66
2019-04-20T18:32:05.143Z,101316.88
2019-04-20T18:34:44.964Z,101315.06
2019-04-20T18:37:21.471Z,101317.30
2019-04-20T18:39:58.790Z,101321.56
2019-04-20T18:42:30.388Z,101320.67
2019-04-20T18:45:17.392Z,101327.95
2019-04-20T18:47:50.896Z,101328.34
2019-04-20T18:50:16.563Z,101328.35
2019-04-20T18:52:38.306Z,101331.09
2019-04-20T18:55:16.316Z,101330.33
2019-04-20T18:57:43.409Z,101332.73
2019-04-20T19:00:24.350Z,101335.87
2019-04-20T19:03:08.599Z,101342.41
2019-04-20T19:05:31.693Z,101339.66
2019-04-20T19:08:08.438Z,101341.63
2019-04-20T19:10:39.616Z,101345.84
2019-04-20T19:13:22.372Z,101341.33
2019-04-20T19:16:17.209Z,101342.23
2019-04-20T19:18:58.445Z,101337.94
2019-04-20T19:21:19.557Z,101347.81
2019-04-20T19:23:59.266Z,101345.79
2019-04-20T19:26:24.950Z,101344.00
2019-04-20T19:29:03.419Z,101351.52
2019-04-20T19:31:42.648Z,101346.05
2019-04-20T19:34:18.581Z,101347.00
2019-04-20T19:36:38.903Z,101346.95
2019-04-20T19:39:22.267Z,101351.83
2019-04-20T19:41:48.994Z,101343.91
2019-04-20T19:44:21.323Z,101347.36
2019-04-20T19:47:05.301Z,101347.13
2019-04-20T19:49:32.691Z,101346.77
2019-04-20T19:52:25.235Z,101347.20
2019-04-20T19:54:46.618Z,101347.12
2019-04-20T19:57:16.290Z,101342.80
2019-04-20T19:59:39.852Z,101348.13
2019-04-20T20:02:07.714Z,101352.14
2019-04-20T20:04:48.209Z,101352.09
2019-04-20T20:07:22.262Z,101350.51
2019-04-20T20:09:49.753Z,101351.50
2019-04-20T20:12:21.092Z,101349.77
2019-04-20T20:14:51.472Z,101354.68
2019-04-20T20:17:45.649Z,101351.01
2019-04-20T20:20:23.018Z,101353.80
2019-04-20T20:22:35.437Z,101350.87
2019-04-20T20:25:03.152Z,101354.34
2019-04-20T20:27:45.585Z,101346.38
2019-04-20T20:30:15.100Z,101347.13
2019-04-20T20:32:56.823Z,101349.90
2019-04-20T20:35:16.687Z,101350.05
2019-04-20T20:37:51.422Z,101345.98
2019-04-20T20:40:27.372Z,101349.61
2019-04-20T20:43:20.710Z,101347.77
2019-04-20T20:46:01.197Z,101348.03
2019-04-20T20:48:55.609Z,101353.20
2019-04-20T20:51:23.313Z,101346.37
2019-04-20T20:54:04.793Z,101352.16
2019-04-20T20:56:34.113Z,101350.28
2019-04-20T20:59:09.500Z,101347.89
2019-04-20T21:01:44.265Z,101350.97
2019-04-20T21:04:07.117Z,101352.72
2019-04-20T21:06:37.833Z,101352.52
2019-04-20T21:09:14.446Z,101350.70
2019-04-20T21:11:46.247Z,101355.15
2019-04-20T21:14:22.003Z,101352.53
2019-04-20T21:17:00.318Z,101352.66
2019-04-20T21:19:45.453Z,101348.48
2019-04-20T21:22:04.875Z,101350.37
2019-04-20T21:24:35.823Z,101352.72
2019-04-20T21:27:13.327Z,101347.92
2019-04-20T21:29:47.268Z,101348.55
2019-04-20T21:32:19.717Z,101353.71
2019-04-20T21:34:55.687Z,101350.05
2019-04-20T21:37:25.354Z,101350.50
2019-04-20T21:39:59.702Z,101345.55
2019-04-20T21:42:30.114Z,101342.00
2019-04-20T21:45:06.985Z,101345.17
2019-04-20T21:47:36.317Z,101344.70
2019-04-20T21:50:23.051Z,101342.38
2019-04-20T21:52:43.069Z,101349.88
2019-04-20T21:55:10.192Z,101347.21
2019-04-20T21:57:46.220Z,101346.69
2019-04-20T22:00:35.090Z,101348.13
2019-04-20T22:03:07.414Z,101340.56
2019-04-20T22:05:36.163Z,101346.03
2019-04-20T22:08:10.580Z,101344.42
2019-04-20T22:10:39.018Z,101343.73
2019-04-20T22:13:09.933Z,101340.02
2019-04-20T22:15:49.228Z,101343.73
2019-04-20T22:18:18.068Z,101342.02
2019-04-20T22:20:57.710Z,101340.84
2019-04-20T22:23:36.533Z,101335.61
2019-04-20T22:26:03.119Z,101341.16
2019-04-20T22:28:22.272Z,101334.52
2019-04-20T22:30:53.893Z,101335.11
2019-04-20T22:33:36.711Z,101338.32
2019-04-20T22:36:09.173Z,101331.64
2019-04-20T22:39:07.585Z,101329.38
2019-04-20T22:41:52.430Z,101332.49
2019-04-20T22:44:21.361Z,101334.41
2019-04-20T22:46:52.179Z,101336.27
2019-04-20T22:49:42.066Z,101328.75
2019-04-20T22:52:05.276Z,101324.18
2019-04-20T22:54:42.297Z,101330.29
2019-04-20T22:57:11.896Z,101323.77
2019-04-20T22:59:44.695Z,101322.59
2019-04-20T23:02:09.437Z,101321.02
2019-04-20T23:04:40.217Z,101316.19
2019-04-20T23:07:10.964Z,101317.20
2019-04-20T23:09:48.647Z,101302.63
2019-04-20T23:12:18.859Z,101303.10
2019-04-20T23:14:46.585Z,101298.88
2019-04-20T23:17:24.522Z,101297.45
2019-04-20T23:19:55.653Z,101292.36
2019-04-20T23:22:23.062Z,101292.56
2019-04-20T23:24:53.628Z,101285.92
2019-04-20T23:27:29.362Z,101281.62
2019-04-20T23:29:58.347Z,101278.86
2019-04-20T23:32:30.304Z,101281.67
2019-04-20T23:35:08.591Z,101285.95
2019-04-20T23:37:38.543Z,101278.25
2019-04-20T23:40:10.984Z,101273.86
2019-04-20T23:42:45.951Z,101274.91
2019-04-20T23:45:50.859Z,101272.90
2019-04-20T23:48:38.832Z,101269.50
2019-04-20T23:51:29.944Z,101270.34
2019-04-20T23:53:51.174Z,101266.11
2019-04-20T23:56:13.413Z,101267.21
2019-04-20T23:58:47.500Z,101263.34
